createdAt,value
2019-01-17T00:01:30.339Z,6.03
2019-01-17T00:04:49.806Z,6.73
2019-01-17T00:08:13.363Z,6.90
2019-01-17T00:11:32.735Z,6.47
2019-01-17T00:14:50.606Z,5.97
2019-01-17T00:17:59.600Z,5.83
2019-01-17T00:21:16.642Z,7.73
2019-01-17T00:24:45.103Z,6.23
2019-01-17T00:28:10.333Z,6.23
2019-01-17T00:31:25.060Z,7.70
2019-01-17T00:34:47.186Z,5.20
2019-01-17T00:38:06.464Z,5.80
2019-01-17T00:41:18.595Z,5.03
2019-01-17T00:44:56.394Z,5.30
2019-01-17T00:48:14.446Z,8.13
2019-01-17T00:51:42.798Z,8.00
2019-01-17T00:55:04.822Z,6.57
2019-01-17T00:58:23.883Z,5.70
2019-01-17T01:01:35.926Z,7.97
2019-01-17T01:04:57.150Z,6.43
2019-01-17T01:08:15.154Z,8.13
2019-01-17T01:11:33.087Z,7.10
2019-01-17T01:14:52.386Z,8.80
2019-01-17T01:18:07.116Z,5.00
2019-01-17T01:21:29.359Z,4.93
2019-01-17T01:24:59.167Z,7.53
2019-01-17T01:28:22.418Z,6.07
2019-01-17T01:31:45.213Z,5.77
2019-01-17T01:34:57.542Z,4.80
2019-01-17T01:38:29.130Z,8.67
2019-01-17T01:41:41.430Z,6.53
2019-01-17T01:45:09.861Z,4.83
2019-01-17T01:48:22.460Z,8.27
2019-01-17T01:51:50.666Z,5.27
2019-01-17T01:54:50.936Z,5.50
2019-01-17T01:57:51.369Z,7.83
2019-01-17T02:00:52.027Z,6.53
2019-01-17T02:03:52.791Z,4.70
2019-01-17T02:06:53.153Z,5.00
2019-01-17T02:09:53.747Z,6.10
2019-01-17T02:12:54.031Z,6.23
2019-01-17T02:15:54.325Z,7.77
2019-01-17T02:18:54.735Z,6.47
2019-01-17T02:21:55.123Z,6.30
2019-01-17T02:24:55.642Z,5.80
2019-01-17T02:27:55.966Z,5.80
2019-01-17T02:30:56.418Z,6.67
2019-01-17T02:33:56.816Z,5.83
2019-01-17T02:36:57.359Z,5.77
2019-01-17T02:39:57.758Z,6.03
2019-01-17T02:42:58.093Z,6.90
2019-01-17T02:45:58.596Z,6.60
2019-01-17T02:49:01.222Z,5.77
2019-01-17T02:52:01.771Z,7.50
2019-01-17T02:55:02.052Z,6.47
2019-01-17T02:58:02.380Z,5.57
2019-01-17T03:01:02.742Z,6.23
2019-01-17T03:04:03.122Z,8.47
2019-01-17T03:07:03.601Z,6.50
2019-01-17T03:10:04.349Z,4.80
2019-01-17T03:13:04.796Z,6.50
2019-01-17T03:16:05.084Z,10.07
2019-01-17T03:19:05.748Z,13.43
2019-01-17T03:22:06.042Z,4.50
2019-01-17T03:25:07.106Z,6.40
2019-01-17T03:28:07.617Z,5.67
2019-01-17T03:31:09.605Z,7.97
2019-01-17T03:34:10.014Z,5.27
2019-01-17T03:37:10.358Z,5.37
2019-01-17T03:40:13.284Z,6.33
2019-01-17T03:43:13.687Z,6.77
2019-01-17T03:46:14.119Z,6.03
2019-01-17T03:49:14.471Z,6.70
2019-01-17T03:52:14.875Z,6.73
2019-01-17T03:55:18.179Z,5.17
2019-01-17T03:58:18.741Z,5.97
2019-01-17T04:01:22.190Z,6.33
2019-01-17T04:04:22.582Z,5.33
2019-01-17T04:07:22.990Z,4.70
2019-01-17T04:10:23.347Z,4.57
2019-01-17T04:13:23.807Z,6.23
2019-01-17T04:16:24.272Z,5.07
2019-01-17T04:19:24.687Z,4.90
2019-01-17T04:22:25.033Z,4.73
2019-01-17T04:25:25.486Z,5.03
2019-01-17T04:28:26.132Z,5.23
2019-01-17T04:31:26.511Z,5.47
2019-01-17T04:34:26.866Z,6.07
2019-01-17T04:37:27.326Z,4.10
2019-01-17T04:40:27.762Z,4.93
2019-01-17T04:43:29.324Z,5.70
2019-01-17T04:46:29.684Z,5.77
2019-01-17T04:49:30.163Z,5.80
2019-01-17T04:52:30.446Z,4.07
2019-01-17T04:55:30.803Z,5.97
2019-01-17T04:58:34.059Z,3.83
2019-01-17T05:01:37.207Z,4.50
2019-01-17T05:04:37.483Z,5.00
2019-01-17T05:07:37.824Z,6.87
2019-01-17T05:10:38.189Z,4.23
2019-01-17T05:13:38.530Z,4.20
2019-01-17T05:16:38.835Z,7.10
2019-01-17T05:19:39.175Z,4.00
2019-01-17T05:22:43.626Z,3.90
2019-01-17T05:25:44.188Z,4.47
2019-01-17T05:28:44.645Z,4.80
2019-01-17T05:31:45.072Z,4.93
2019-01-17T05:34:45.876Z,5.23
2019-01-17T05:37:46.519Z,5.60
2019-01-17T05:40:47.310Z,4.83
2019-01-17T05:43:47.926Z,5.10
2019-01-17T05:46:48.807Z,4.87
2019-01-17T05:49:49.589Z,5.03
2019-01-17T05:52:50.427Z,5.30
2019-01-17T05:55:53.808Z,4.63
2019-01-17T05:58:55.900Z,7.10
2019-01-17T06:01:56.206Z,5.90
2019-01-17T06:04:56.483Z,4.27
2019-01-17T06:07:59.628Z,5.03
2019-01-17T06:11:00.156Z,4.17
2019-01-17T06:14:00.670Z,4.70
2019-01-17T06:17:01.066Z,7.17
2019-01-17T06:20:01.631Z,4.73
2019-01-17T06:23:03.413Z,6.70
2019-01-17T06:26:03.772Z,4.53
2019-01-17T06:29:04.095Z,4.43
2019-01-17T06:32:04.436Z,5.83
2019-01-17T06:35:05.728Z,4.53
2019-01-17T06:38:06.131Z,5.47
2019-01-17T06:41:08.359Z,5.00
2019-01-17T06:44:08.966Z,6.90
2019-01-17T06:47:09.316Z,5.17
2019-01-17T06:50:09.754Z,4.90
2019-01-17T06:53:10.159Z,6.83
2019-01-17T06:56:10.587Z,5.63
2019-01-17T06:59:11.018Z,6.97
2019-01-17T07:02:11.370Z,5.90
2019-01-17T07:05:12.419Z,4.20
2019-01-17T07:08:12.749Z,5.80
2019-01-17T07:11:13.154Z,4.20
2019-01-17T07:14:13.442Z,6.23
2019-01-17T07:17:13.815Z,5.80
2019-01-17T07:20:15.490Z,4.60
2019-01-17T07:23:15.771Z,4.83
2019-01-17T07:26:16.060Z,6.30
2019-01-17T07:29:16.720Z,5.53
2019-01-17T07:32:18.386Z,5.50
2019-01-17T07:35:19.234Z,4.00
2019-01-17T07:38:19.575Z,4.93
2019-01-17T07:41:19.976Z,5.43
2019-01-17T07:44:20.392Z,5.40
2019-01-17T07:47:20.942Z,4.70
2019-01-17T07:50:21.270Z,5.83
2019-01-17T07:53:21.780Z,4.37
2019-01-17T07:56:22.229Z,5.03
2019-01-17T07:59:28.614Z,5.23
2019-01-17T08:02:28.990Z,6.13
2019-01-17T08:05:29.363Z,5.17
2019-01-17T08:08:29.750Z,4.10
2019-01-17T08:11:30.177Z,4.63
2019-01-17T08:14:30.592Z,5.03
2019-01-17T08:17:33.919Z,5.60
2019-01-17T08:20:34.406Z,5.57
2019-01-17T08:23:34.936Z,5.63
2019-01-17T08:26:36.761Z,5.53
2019-01-17T08:29:37.367Z,6.40
2019-01-17T08:32:37.939Z,6.60
2019-01-17T08:35:38.351Z,4.60
2019-01-17T08:38:38.947Z,6.00
2019-01-17T08:41:39.350Z,4.63
2019-01-17T08:44:39.744Z,5.60
2019-01-17T08:47:40.191Z,5.47
2019-01-17T08:50:40.701Z,6.33
2019-01-17T08:53:41.118Z,5.57
2019-01-17T08:56:41.442Z,7.63
2019-01-17T08:59:41.963Z,6.37
2019-01-17T09:02:42.327Z,6.00
2019-01-17T09:05:42.817Z,5.13
2019-01-17T09:08:44.746Z,5.53
2019-01-17T09:11:45.179Z,4.87
2019-01-17T09:14:45.623Z,4.70
2019-01-17T09:17:47.596Z,4.50
2019-01-17T09:20:47.953Z,6.03
2019-01-17T09:23:48.591Z,5.03
2019-01-17T09:26:48.966Z,5.13
2019-01-17T09:29:49.333Z,4.30
2019-01-17T09:32:49.614Z,5.77
2019-01-17T09:35:49.963Z,4.80
2019-01-17T09:38:50.494Z,6.17
2019-01-17T09:41:52.653Z,4.50
2019-01-17T09:44:53.361Z,4.63
2019-01-17T09:47:53.768Z,5.50
2019-01-17T09:50:54.153Z,4.17
2019-01-17T09:53:59.175Z,5.17
2019-01-17T09:56:59.496Z,3.90
2019-01-17T09:59:59.779Z,4.87
2019-01-17T10:03:01.974Z,4.07
2019-01-17T10:06:02.672Z,4.60
2019-01-17T10:09:04.472Z,4.30
2019-01-17T10:12:05.327Z,4.50
2019-01-17T10:15:09.732Z,4.87
2019-01-17T10:18:51.222Z,5.73
2019-01-17T10:23:02.894Z,5.20
2019-01-17T10:26:31.999Z,4.47
2019-01-17T10:30:03.309Z,4.33
2019-01-17T10:33:20.744Z,4.37
2019-01-17T10:37:08.375Z,5.97
2019-01-17T10:40:47.008Z,4.90
2019-01-17T10:44:16.088Z,4.63
2019-01-17T10:48:00.071Z,4.67
2019-01-17T10:51:49.882Z,4.37
2019-01-17T10:55:45.338Z,4.40
2019-01-17T10:59:23.812Z,4.47
2019-01-17T11:03:17.019Z,4.87
2019-01-17T11:06:41.235Z,4.57
2019-01-17T11:10:27.660Z,4.33
2019-01-17T11:14:16.248Z,3.90
2019-01-17T11:17:52.239Z,4.03
2019-01-17T11:21:22.889Z,4.23
2019-01-17T11:25:19.758Z,4.28
2019-01-17T11:29:16.614Z,4.30
2019-01-17T11:32:56.173Z,5.80
2019-01-17T11:36:39.328Z,4.10
2019-01-17T11:40:35.793Z,4.28
2019-01-17T11:44:21.886Z,4.00
2019-01-17T11:47:36.881Z,5.53
2019-01-17T11:51:32.485Z,3.70
2019-01-17T11:55:26.944Z,3.60
2019-01-17T11:59:07.916Z,3.53
2019-01-17T12:02:45.182Z,4.03
2019-01-17T12:05:45.643Z,3.50
2019-01-17T12:08:45.946Z,3.20
2019-01-17T12:11:46.331Z,4.23
2019-01-17T12:14:46.610Z,3.27
2019-01-17T12:17:47.150Z,3.98
2019-01-17T12:20:47.640Z,4.47
2019-01-17T12:23:48.114Z,3.55
2019-01-17T12:26:48.527Z,3.60
2019-01-17T12:29:48.855Z,3.30
2019-01-17T12:32:49.211Z,3.57
2019-01-17T12:35:49.655Z,3.47
2019-01-17T12:38:50.133Z,3.80
2019-01-17T12:41:53.655Z,3.37
2019-01-17T12:44:54.131Z,3.40
2019-01-17T12:47:54.434Z,3.15
2019-01-17T12:50:54.755Z,3.02
2019-01-17T12:53:55.205Z,3.33
2019-01-17T12:56:55.725Z,3.08
2019-01-17T12:59:56.124Z,2.87
2019-01-17T13:02:56.475Z,2.72
2019-01-17T13:05:56.832Z,3.00
2019-01-17T13:08:57.278Z,3.77
2019-01-17T13:11:57.765Z,3.10
2019-01-17T13:14:58.193Z,3.10
2019-01-17T13:17:58.612Z,3.55
2019-01-17T13:20:59.111Z,2.87
2019-01-17T13:23:59.510Z,2.72
2019-01-17T13:27:02.903Z,2.95
2019-01-17T13:30:03.247Z,2.70
2019-01-17T13:33:05.212Z,2.75
2019-01-17T13:36:10.301Z,3.00
2019-01-17T13:39:10.627Z,3.08
2019-01-17T13:42:10.970Z,2.42
2019-01-17T13:45:14.948Z,2.25
2019-01-17T13:48:15.388Z,2.80
2019-01-17T13:51:15.873Z,2.40
2019-01-17T13:54:17.812Z,2.08
2019-01-17T13:57:18.218Z,2.77
2019-01-17T14:00:23.258Z,2.40
2019-01-17T14:03:25.450Z,2.10
2019-01-17T14:06:26.219Z,2.37
2019-01-17T14:09:26.935Z,2.12
2019-01-17T14:12:27.616Z,2.60
2019-01-17T14:15:29.583Z,2.33
2019-01-17T14:18:30.036Z,2.37
2019-01-17T14:21:30.428Z,2.92
2019-01-17T14:24:30.804Z,3.75
2019-01-17T14:27:31.215Z,2.08
2019-01-17T14:30:33.207Z,1.70
2019-01-17T14:33:33.912Z,2.20
2019-01-17T14:36:34.482Z,3.25
2019-01-17T14:39:34.927Z,2.05
2019-01-17T14:42:35.271Z,1.32
2019-01-17T14:45:35.696Z,1.22
2019-01-17T14:48:36.315Z,1.57
2019-01-17T14:51:39.424Z,2.55
2019-01-17T14:54:39.896Z,1.85
2019-01-17T14:57:40.536Z,1.47
2019-01-17T15:00:40.890Z,1.95
2019-01-17T15:03:41.414Z,3.55
2019-01-17T15:06:41.782Z,1.75
2019-01-17T15:09:42.262Z,3.35
2019-01-17T15:12:42.652Z,1.80
2019-01-17T15:15:43.671Z,1.30
2019-01-17T15:18:45.230Z,2.35
2019-01-17T15:21:45.660Z,1.57
2019-01-17T15:24:46.148Z,2.58
2019-01-17T15:27:46.691Z,1.50
2019-01-17T15:30:50.290Z,1.67
2019-01-17T15:33:50.671Z,3.40
2019-01-17T15:36:50.968Z,1.62
2019-01-17T15:39:51.394Z,3.10
2019-01-17T15:42:51.755Z,2.20
2019-01-17T15:45:52.115Z,1.82
2019-01-17T15:48:52.536Z,2.08
2019-01-17T15:51:53.307Z,1.37
2019-01-17T15:54:53.683Z,1.27
2019-01-17T15:57:54.018Z,2.52
2019-01-17T16:00:56.556Z,1.25
2019-01-17T16:03:58.134Z,1.45
2019-01-17T16:06:58.580Z,1.25
2019-01-17T16:09:58.972Z,1.35
2019-01-17T16:12:59.375Z,1.65
2019-01-17T16:16:01.516Z,3.22
2019-01-17T16:19:01.831Z,1.52
2019-01-17T16:22:02.238Z,1.45
2019-01-17T16:25:02.714Z,1.52
2019-01-17T16:28:05.782Z,1.32
2019-01-17T16:31:06.363Z,1.35
2019-01-17T16:34:06.930Z,1.70
2019-01-17T16:37:07.467Z,1.75
2019-01-17T16:40:08.686Z,4.40
2019-01-17T16:43:09.272Z,1.98
2019-01-17T16:46:09.650Z,2.02
2019-01-17T16:49:10.075Z,1.82
2019-01-17T16:52:10.490Z,1.37
2019-01-17T16:55:11.670Z,1.98
2019-01-17T16:58:12.204Z,1.47
2019-01-17T17:01:12.621Z,2.00
2019-01-17T17:04:13.134Z,2.30
2019-01-17T17:07:13.618Z,1.82
2019-01-17T17:10:20.268Z,1.70
2019-01-17T17:13:21.053Z,2.42
2019-01-17T17:16:21.827Z,2.60
2019-01-17T17:19:22.225Z,1.82
2019-01-17T17:22:25.441Z,1.55
2019-01-17T17:25:25.975Z,1.60
2019-01-17T17:28:27.714Z,2.12
2019-01-17T17:31:30.417Z,3.35
2019-01-17T17:34:30.984Z,1.55
2019-01-17T17:37:32.500Z,1.32
2019-01-17T17:40:34.746Z,1.40
2019-01-17T17:43:35.197Z,2.02
2019-01-17T17:46:35.714Z,1.32
2019-01-17T17:49:36.315Z,1.40
2019-01-17T17:52:36.846Z,1.82
2019-01-17T17:55:37.294Z,1.65
2019-01-17T17:58:41.618Z,1.98
2019-01-17T18:01:44.602Z,1.37
2019-01-17T18:04:45.025Z,1.60
2019-01-17T18:07:50.005Z,1.57
2019-01-17T18:10:50.635Z,1.47
2019-01-17T18:13:51.157Z,1.25
2019-01-17T18:16:51.704Z,1.60
2019-01-17T18:19:52.196Z,1.20
2019-01-17T18:22:55.551Z,1.85
2019-01-17T18:25:57.281Z,1.50
2019-01-17T18:28:57.680Z,1.72
2019-01-17T18:31:58.275Z,1.77
2019-01-17T18:34:58.729Z,1.80
2019-01-17T18:37:59.321Z,1.60
2019-01-17T18:41:01.567Z,1.60
2019-01-17T18:44:02.386Z,2.02
2019-01-17T18:47:03.775Z,3.33
2019-01-17T18:50:09.187Z,1.67
2019-01-17T18:53:09.833Z,1.57
2019-01-17T18:56:13.194Z,1.80
2019-01-17T18:59:15.606Z,1.65
2019-01-17T19:02:15.717Z,1.82
2019-01-17T19:05:16.241Z,2.02
2019-01-17T19:08:16.936Z,3.58
2019-01-17T19:11:20.433Z,4.05
2019-01-17T19:14:20.769Z,1.93
2019-01-17T19:17:21.202Z,1.60
2019-01-17T19:20:21.818Z,2.62
2019-01-17T19:23:22.187Z,1.67
2019-01-17T19:26:22.682Z,2.17
2019-01-17T19:29:27.413Z,1.80
2019-01-17T19:32:30.632Z,1.70
2019-01-17T19:35:31.126Z,1.45
2019-01-17T19:38:31.612Z,2.03
2019-01-17T19:41:32.109Z,1.70
2019-01-17T19:44:33.610Z,2.20
2019-01-17T19:47:34.090Z,1.98
2019-01-17T19:50:37.286Z,2.50
2019-01-17T19:53:37.775Z,2.85
2019-01-17T19:56:38.384Z,1.70
2019-01-17T19:59:38.726Z,1.70
2019-01-17T20:02:39.177Z,1.92
2019-01-17T20:05:40.675Z,3.00
2019-01-17T20:08:41.139Z,2.10
2019-01-17T20:11:41.950Z,1.80
2019-01-17T20:14:42.660Z,1.70
2019-01-17T20:17:43.332Z,2.13
2019-01-17T20:20:43.989Z,1.97
2019-01-17T20:23:44.892Z,1.63
2019-01-17T20:26:45.297Z,1.50
2019-01-17T20:29:49.611Z,1.93
2019-01-17T20:32:50.427Z,2.10
2019-01-17T20:35:51.194Z,1.60
2019-01-17T20:38:52.172Z,1.70
2019-01-17T20:41:52.903Z,3.70
2019-01-17T20:44:55.950Z,2.03
2019-01-17T20:47:56.534Z,2.60
2019-01-17T20:50:56.977Z,1.93
2019-01-17T20:53:57.419Z,3.40
2019-01-17T20:56:59.769Z,1.90
2019-01-17T21:00:06.629Z,2.00
2019-01-17T21:03:12.985Z,2.10
2019-01-17T21:06:13.579Z,2.07
2019-01-17T21:09:14.123Z,2.07
2019-01-17T21:12:14.539Z,2.50
2019-01-17T21:15:15.780Z,1.77
2019-01-17T21:18:16.334Z,1.93
2019-01-17T21:21:17.777Z,2.20
2019-01-17T21:24:19.724Z,2.17
2019-01-17T21:27:20.220Z,2.93
2019-01-17T21:30:22.785Z,2.30
2019-01-17T21:33:23.338Z,2.00
2019-01-17T21:36:29.328Z,2.10
2019-01-17T21:39:29.880Z,2.77
2019-01-17T21:42:30.269Z,2.10
2019-01-17T21:45:31.797Z,2.10
2019-01-17T21:48:32.263Z,2.27
2019-01-17T21:51:32.715Z,1.97
2019-01-17T21:54:33.374Z,2.20
2019-01-17T21:57:33.757Z,1.80
2019-01-17T22:00:34.042Z,1.97
2019-01-17T22:03:36.304Z,2.20
2019-01-17T22:06:36.939Z,2.50
2019-01-17T22:09:39.243Z,1.80
2019-01-17T22:12:39.660Z,2.40
2019-01-17T22:15:40.027Z,2.43
2019-01-17T22:18:40.370Z,2.17
2019-01-17T22:21:40.787Z,2.23
2019-01-17T22:24:41.219Z,3.10
2019-01-17T22:27:41.638Z,2.10
2019-01-17T22:30:42.074Z,2.57
2019-01-17T22:33:42.473Z,3.20
2019-01-17T22:36:42.922Z,2.30
2019-01-17T22:39:43.347Z,2.10
2019-01-17T22:42:45.318Z,2.20
2019-01-17T22:45:45.650Z,2.37
2019-01-17T22:48:46.064Z,2.30
2019-01-17T22:51:46.519Z,3.43
2019-01-17T22:54:46.932Z,2.20
2019-01-17T22:57:48.605Z,2.97
2019-01-17T23:01:23.673Z,2.80
2019-01-17T23:04:24.078Z,2.27
2019-01-17T23:07:24.502Z,1.83
2019-01-17T23:10:24.920Z,1.83
2019-01-17T23:13:29.460Z,2.43
2019-01-17T23:16:29.757Z,2.20
2019-01-17T23:19:30.102Z,2.23
2019-01-17T23:22:31.479Z,2.10
2019-01-17T23:25:31.873Z,2.10
2019-01-17T23:28:32.343Z,2.57
2019-01-17T23:31:32.722Z,2.47
2019-01-17T23:34:33.306Z,2.23
2019-01-17T23:37:33.800Z,1.90
2019-01-17T23:40:34.152Z,2.00
2019-01-17T23:43:34.563Z,2.30
2019-01-17T23:46:34.875Z,2.33
2019-01-17T23:49:35.455Z,2.00
2019-01-17T23:52:35.834Z,2.17
2019-01-17T23:55:36.358Z,2.17
2019-01-17T23:58:36.771Z,1.90
